Time;durP1;ratioP1;P1;durP2;ratioP2;P2;SDS_P1;SDS_P2;PMS_P1;PMS_P2;Temp;Humidity;BMP_temperature;BMP_pressure;BME280_temperature;BME280_humidity;BME280_pressure;Samples;Min_cycle;Max_cycle;Signal;HPM_P1;HPM_P2
2022/10/30 00:02:20;;;;;;;17.97;8.10;;;;;;;14.31;59.98;100842.68;124500;1099;104204;-71
2022/10/30 00:04:51;;;;;;;18.80;8.33;;;;;;;14.27;60.02;100846.08;124508;1099;104175;-71
2022/10/30 00:07:22;;;;;;;18.03;8.20;;;;;;;14.24;60.18;100840.72;124577;1098;104166;-72
2022/10/30 00:09:53;;;;;;;17.90;8.57;;;;;;;14.20;60.90;100845.03;124525;1099;104322;-71
2022/10/30 00:12:25;;;;;;;17.27;8.50;;;;;;;14.17;61.03;100841.44;124527;1099;102755;-71
2022/10/30 00:14:56;;;;;;;21.80;8.67;;;;;;;14.13;60.63;100835.19;124528;1099;104163;-71
2022/10/30 00:17:27;;;;;;;22.13;8.27;;;;;;;14.10;60.35;100828.91;124503;1099;102758;-71
2022/10/30 00:19:58;;;;;;;16.37;8.13;;;;;;;14.07;61.16;100832.39;124552;1098;104294;-71
2022/10/30 00:22:29;;;;;;;23.83;8.70;;;;;;;14.04;60.49;100834.94;124548;1099;104271;-71
2022/10/30 00:25:00;;;;;;;17.20;8.10;;;;;;;14.00;60.88;100828.67;124552;1099;104160;-71
2022/10/30 00:27:31;;;;;;;20.67;8.47;;;;;;;13.98;61.34;100838.30;124558;1099;104542;-71
2022/10/30 00:30:02;;;;;;;18.70;8.60;;;;;;;13.95;61.42;100832.94;124504;1099;104408;-71
2022/10/30 00:32:33;;;;;;;18.07;8.57;;;;;;;13.94;61.42;100835.53;124565;1099;102963;-71
2022/10/30 00:35:05;;;;;;;20.47;8.97;;;;;;;13.92;60.81;100826.70;124561;1099;103163;-72
2022/10/30 00:37:36;;;;;;;20.97;9.07;;;;;;;13.91;61.51;100835.45;124601;1099;102166;-71
2022/10/30 00:40:14;;;;;;;21.47;8.97;;;;;;;13.88;61.32;100825.70;124574;1099;104175;-72
2022/10/30 00:42:45;;;;;;;21.20;9.00;;;;;;;13.86;60.99;100827.41;124492;1099;104370;-72
2022/10/30 00:45:17;;;;;;;20.40;8.87;;;;;;;13.82;62.11;100825.53;124518;1099;104264;-71
2022/10/30 00:47:55;;;;;;;17.90;8.43;;;;;;;13.79;61.94;100826.36;124523;1099;104331;-71
2022/10/30 00:50:29;;;;;;;20.83;8.80;;;;;;;13.77;61.45;100816.60;124620;1099;104224;-72
2022/10/30 00:53:05;;;;;;;23.03;9.43;;;;;;;13.72;61.55;100812.95;124613;1098;103049;-72
2022/10/30 00:55:39;;;;;;;18.93;8.33;;;;;;;13.68;62.00;100816.34;124529;1099;104365;-71
2022/10/30 00:58:14;;;;;;;19.83;9.43;;;;;;;13.60;61.35;100811.77;124613;1099;104162;-72
2022/10/30 01:00:51;;;;;;;21.13;9.07;;;;;;;13.54;61.53;100815.95;124561;1099;102818;-72
2022/10/30 01:03:24;;;;;;;24.23;9.80;;;;;;;13.47;61.68;100823.68;124566;1099;104162;-72
2022/10/30 01:06:00;;;;;;;19.83;9.00;;;;;;;13.43;62.03;100815.64;124547;1099;104317;-71
2022/10/30 01:08:32;;;;;;;18.97;9.00;;;;;;;13.40;61.56;100810.28;124518;1099;104336;-72
2022/10/30 01:11:05;;;;;;;20.20;9.67;;;;;;;13.34;62.22;100808.38;124497;1099;104312;-72
2022/10/30 01:13:39;;;;;;;21.10;9.55;;;;;;;13.31;62.10;100805.62;124480;1099;104159;-72
2022/10/30 01:16:33;;;;;;;19.57;9.70;;;;;;;13.28;62.48;100816.95;124457;1099;104268;-72
2022/10/30 01:19:18;;;;;;;20.37;9.87;;;;;;;13.28;62.31;100818.70;124493;1099;104268;-72
2022/10/30 01:22:05;;;;;;;21.20;9.63;;;;;;;13.27;62.69;100817.78;124491;1099;104198;-71
2022/10/30 01:24:47;;;;;;;20.07;9.23;;;;;;;13.29;62.15;100823.10;124535;1099;104259;-71
2022/10/30 01:27:35;;;;;;;20.80;8.47;;;;;;;13.29;62.32;100823.10;124558;1099;102181;-72
2022/10/30 01:30:28;;;;;;;20.70;9.47;;;;;;;13.28;62.96;100821.34;124530;1099;104172;-72
2022/10/30 01:33:13;;;;;;;21.47;9.63;;;;;;;13.27;63.17;100828.33;124556;1099;104236;-72
2022/10/30 01:35:52;;;;;;;18.17;9.23;;;;;;;13.27;63.21;100819.54;124543;1099;104398;-72
2022/10/30 01:38:28;;;;;;;21.73;9.77;;;;;;;13.28;62.94;100810.80;124538;1099;104169;-72
2022/10/30 01:40:59;;;;;;;22.67;9.10;;;;;;;13.27;63.02;100816.91;124518;1099;104319;-71
2022/10/30 01:43:31;;;;;;;17.70;8.60;;;;;;;13.27;62.67;100806.36;124596;1099;104185;-72
2022/10/30 01:46:18;;;;;;;16.47;8.13;;;;;;;13.28;62.93;100811.67;124667;1099;104253;-72
2022/10/30 01:49:20;;;;;;;17.37;8.87;;;;;;;13.28;63.38;100810.80;124480;1099;104358;-72
2022/10/30 01:52:01;;;;;;;18.57;8.93;;;;;;;13.27;63.11;100804.61;124660;1099;104214;-72
2022/10/30 01:54:42;;;;;;;20.87;8.80;;;;;;;13.26;62.90;100800.21;124565;1099;104297;-72
2022/10/30 01:57:32;;;;;;;20.63;9.73;;;;;;;13.24;63.31;100804.52;124479;1099;104123;-71
2022/10/30 02:00:08;;;;;;;24.60;9.47;;;;;;;13.23;63.86;100797.48;124499;1099;104227;-71
2022/10/30 02:02:51;;;;;;;18.73;8.17;;;;;;;13.22;63.47;100795.69;124588;1099;104172;-71
2022/10/30 02:05:36;;;;;;;18.03;8.80;;;;;;;13.22;63.93;100792.17;124539;1099;104297;-72
2022/10/30 02:08:07;;;;;;;19.23;8.63;;;;;;;13.21;63.46;100787.73;124578;1099;104310;-72
2022/10/30 02:10:41;;;;;;;23.98;9.20;;;;;;;13.21;63.51;100790.38;124557;1099;104218;-72
2022/10/30 02:13:12;;;;;;;21.40;9.20;;;;;;;13.22;63.64;100795.69;124512;1099;104261;-71
2022/10/30 02:15:47;;;;;;;19.20;9.03;;;;;;;13.22;64.16;100798.32;124546;1099;104428;-72
2022/10/30 02:18:18;;;;;;;18.77;9.27;;;;;;;13.21;63.90;100808.81;124592;1099;104214;-72
2022/10/30 02:20:49;;;;;;;20.37;8.63;;;;;;;13.19;64.13;100811.41;124646;1099;104217;-72
2022/10/30 02:23:21;;;;;;;19.63;8.93;;;;;;;13.16;64.22;100807.80;124544;1099;104178;-71
2022/10/30 02:25:53;;;;;;;18.43;9.27;;;;;;;13.12;64.27;100815.61;124494;1099;104185;-72
2022/10/30 02:28:24;;;;;;;19.53;8.90;;;;;;;13.11;64.03;100807.66;124592;1099;104239;-72
2022/10/30 02:30:55;;;;;;;20.40;9.43;;;;;;;13.10;64.33;100800.59;124560;1099;102828;-72
2022/10/30 02:33:28;;;;;;;22.67;8.80;;;;;;;13.11;63.84;100807.66;124513;1099;104240;-72
2022/10/30 02:35:59;;;;;;;21.23;9.47;;;;;;;13.08;64.56;100805.81;124592;1099;102368;-72
2022/10/30 02:38:31;;;;;;;22.40;9.30;;;;;;;13.09;64.00;100799.70;124460;1099;104226;-72
2022/10/30 02:41:02;;;;;;;21.27;9.60;;;;;;;13.10;63.81;100800.59;124494;1099;104023;-72
2022/10/30 02:43:33;;;;;;;20.70;9.60;;;;;;;13.12;64.29;100801.55;124520;1099;104254;-72
2022/10/30 02:46:05;;;;;;;20.87;9.57;;;;;;;13.14;64.37;100807.75;124530;1099;104264;-72
2022/10/30 02:48:38;;;;;;;18.48;9.13;;;;;;;13.13;64.73;100806.86;124336;1099;104230;-72
2022/10/30 02:51:09;;;;;;;21.40;9.87;;;;;;;13.15;64.47;100796.37;124601;1099;104173;-72
2022/10/30 02:53:41;;;;;;;20.53;9.33;;;;;;;13.16;64.78;100803.41;124462;1099;104684;-71
2022/10/30 02:56:15;;;;;;;20.90;9.60;;;;;;;13.17;64.48;100799.05;124483;1099;104328;-71
2022/10/30 02:58:46;;;;;;;19.73;8.73;;;;;;;13.18;64.14;100804.34;124562;1098;104275;-72
2022/10/30 03:01:19;;;;;;;20.13;9.23;;;;;;;13.17;64.89;100797.30;124566;1098;104169;-72
2022/10/30 03:03:51;;;;;;;18.17;8.90;;;;;;;13.18;64.44;100804.34;124151;1099;104191;-72
2022/10/30 03:06:22;;;;;;;19.67;9.03;;;;;;;13.17;64.86;100805.20;124510;1099;104401;-71
2022/10/30 03:08:54;;;;;;;18.43;8.87;;;;;;;13.15;64.36;100809.55;124554;1099;104239;-71
2022/10/30 03:11:26;;;;;;;19.73;9.33;;;;;;;13.10;65.01;100806.77;124553;1099;104316;-72
2022/10/30 03:13:58;;;;;;;19.27;9.27;;;;;;;13.08;64.62;100807.56;124531;1099;104238;-72
2022/10/30 03:16:30;;;;;;;24.47;9.80;;;;;;;13.06;64.59;100809.27;124531;1099;104265;-72
2022/10/30 03:19:01;;;;;;;20.87;9.23;;;;;;;13.04;64.79;100814.48;124511;1098;104235;-72
2022/10/30 03:21:33;;;;;;;19.63;8.93;;;;;;;13.03;64.90;100801.27;124467;1099;104271;-72
2022/10/30 03:24:04;;;;;;;22.67;8.77;;;;;;;13.01;65.06;100806.48;124521;1099;102238;-72
2022/10/30 03:26:36;;;;;;;21.23;9.43;;;;;;;13.01;64.96;100814.39;124538;1099;101965;-71
2022/10/30 03:29:11;;;;;;;19.97;9.03;;;;;;;13.02;64.69;100813.52;124528;1099;104172;-71
2022/10/30 03:31:42;;;;;;;24.10;9.20;;;;;;;13.02;65.11;100807.38;124474;1099;104323;-72
2022/10/30 03:34:23;;;;;;;20.13;9.60;;;;;;;13.02;64.67;100807.38;124564;1099;104290;-71
2022/10/30 03:36:54;;;;;;;21.13;9.30;;;;;;;13.02;65.07;100813.52;124519;1099;104311;-71
2022/10/30 03:39:25;;;;;;;20.53;9.13;;;;;;;13.01;65.02;100822.30;124276;1099;102851;-72
2022/10/30 03:41:57;;;;;;;19.83;9.27;;;;;;;12.99;65.22;100807.28;124119;1099;104307;-72
2022/10/30 03:44:28;;;;;;;21.23;9.20;;;;;;;12.98;65.21;100805.48;124463;1099;104252;-72
2022/10/30 03:47:00;;;;;;;19.63;9.20;;;;;;;12.98;65.57;100806.39;124510;1099;104245;-72
2022/10/30 03:49:33;;;;;;;20.62;8.90;;;;;;;12.96;65.26;100800.16;124355;1099;104239;-71
2022/10/30 03:52:06;;;;;;;20.13;9.03;;;;;;;12.97;65.37;100801.08;124538;1099;102882;-72
2022/10/30 03:54:37;;;;;;;19.20;8.87;;;;;;;12.95;65.87;100798.40;124487;1099;104185;-71
2022/10/30 03:57:08;;;;;;;17.60;8.55;;;;;;;12.93;65.42;100793.08;124534;1099;104189;-71
2022/10/30 03:59:48;;;;;;;18.50;9.13;;;;;;;12.90;65.67;100803.52;124456;1099;102619;-72
2022/10/30 04:02:31;;;;;;;21.90;9.50;;;;;;;12.86;65.26;100798.99;124149;1099;104239;-72
2022/10/30 04:05:03;;;;;;;21.90;9.50;;;;;;;12.85;65.50;100794.56;124125;1099;104249;-71
2022/10/30 04:07:34;;;;;;;20.30;8.70;;;;;;;12.85;65.37;100791.05;124139;1099;102593;-71
2022/10/30 04:10:06;;;;;;;20.40;9.20;;;;;;;12.88;65.59;100788.51;124367;1099;104200;-72
2022/10/30 04:12:37;;;;;;;20.30;9.27;;;;;;;12.89;65.41;100782.41;124564;1099;104248;-72
2022/10/30 04:15:10;;;;;;;23.37;9.70;;;;;;;12.93;65.94;100789.53;124493;1099;104258;-71
2022/10/30 04:17:47;;;;;;;20.43;9.03;;;;;;;12.92;65.82;100782.50;124509;1099;104197;-72
2022/10/30 04:20:19;;;;;;;20.10;9.20;;;;;;;12.90;66.06;100787.72;124461;1099;104220;-71
2022/10/30 04:22:55;;;;;;;21.87;9.43;;;;;;;12.89;65.91;100785.92;124530;1099;104236;-72
2022/10/30 04:25:27;;;;;;;20.83;9.23;;;;;;;12.89;65.72;100783.29;124496;1099;104245;-72
2022/10/30 04:28:00;;;;;;;21.77;9.90;;;;;;;12.90;65.83;100781.54;124146;1099;104421;-72
2022/10/30 04:30:34;;;;;;;18.20;8.83;;;;;;;12.90;66.04;100777.19;124595;1099;103751;-71
2022/10/30 04:33:04;;;;;;;;;;;;;;;12.88;65.89;100770.95;124600;1099;103279;-72
2022/10/30 04:35:37;;;;;;;20.17;9.37;;;;;;;12.89;66.47;100783.29;124490;1099;103794;-72
2022/10/30 04:38:11;;;;;;;21.27;8.87;;;;;;;12.88;65.92;100788.51;124515;1099;104252;-72
2022/10/30 04:40:43;;;;;;;22.50;9.20;;;;;;;12.86;66.37;100783.20;124235;1099;104331;-71
2022/10/30 04:43:16;;;;;;;24.45;9.60;;;;;;;12.87;66.06;100791.98;124508;1098;104246;-71
2022/10/30 04:45:50;;;;;;;20.43;9.30;;;;;;;12.87;66.53;100787.62;124550;1099;104236;-71
2022/10/30 04:48:21;;;;;;;20.80;9.60;;;;;;;12.88;66.32;100794.66;124078;1099;104217;-71
2022/10/30 04:50:52;;;;;;;20.13;8.93;;;;;;;12.85;66.54;100789.30;124565;1099;103146;-71
2022/10/30 04:53:28;;;;;;;23.10;9.83;;;;;;;12.86;66.39;100796.36;124549;1099;104195;-72
2022/10/30 04:56:04;;;;;;;20.53;9.93;;;;;;;12.87;66.66;100798.16;124562;1099;104309;-71
2022/10/30 04:58:35;;;;;;;23.47;9.60;;;;;;;12.89;66.47;100791.19;124467;1099;103153;-71
2022/10/30 05:01:09;;;;;;;23.30;9.60;;;;;;;12.91;66.67;100800.02;124228;1099;102701;-72
2022/10/30 05:03:40;;;;;;;22.10;9.93;;;;;;;12.94;66.43;100805.38;124169;1099;103889;-72
2022/10/30 05:06:22;;;;;;;20.17;9.27;;;;;;;12.95;66.32;100809.81;124097;1099;104275;-72
2022/10/30 05:08:54;;;;;;;21.50;9.60;;;;;;;12.98;66.36;100801.12;124205;1099;104229;-72
2022/10/30 05:11:44;;;;;;;20.73;9.77;;;;;;;13.02;67.26;100797.72;124445;1099;104356;-72
2022/10/30 05:14:16;;;;;;;24.13;9.93;;;;;;;13.05;67.00;100802.20;124494;1099;104253;-72
2022/10/30 05:16:48;;;;;;;22.83;10.00;;;;;;;13.08;66.95;100802.30;124496;1099;104114;-71
2022/10/30 05:19:20;;;;;;;28.83;10.27;;;;;;;13.12;66.53;100809.45;124502;1099;102924;-72
2022/10/30 05:21:56;;;;;;;22.27;9.60;;;;;;;13.14;67.02;100807.75;124220;1099;104233;-71
2022/10/30 05:24:27;;;;;;;21.67;10.40;;;;;;;13.18;67.40;100813.99;124527;1099;103071;-71
2022/10/30 05:26:58;;;;;;;24.60;9.40;;;;;;;13.19;67.18;100802.61;124139;1099;104233;-72
2022/10/30 05:29:30;;;;;;;22.00;9.73;;;;;;;13.21;67.60;100793.89;124152;1099;104341;-72
2022/10/30 05:32:01;;;;;;;25.67;10.10;;;;;;;13.25;66.80;100794.89;124568;1099;102247;-72
2022/10/30 05:34:50;;;;;;;22.00;9.77;;;;;;;13.26;67.15;100794.94;124516;1099;104178;-72
2022/10/30 05:37:24;;;;;;;23.77;10.10;;;;;;;13.28;67.22;100793.23;124461;1099;104286;-72
2022/10/30 05:39:56;;;;;;;22.97;10.50;;;;;;;13.29;67.33;100800.30;124440;1099;104048;-72
2022/10/30 05:42:30;;;;;;;22.22;9.90;;;;;;;13.31;67.65;100800.34;124577;1099;104249;-72
2022/10/30 05:45:03;;;;;;;20.80;9.67;;;;;;;13.33;67.73;100803.03;124525;1099;104334;-72
2022/10/30 05:47:37;;;;;;;24.03;10.90;;;;;;;13.34;67.41;100803.11;124106;1099;104290;-71
2022/10/30 05:50:11;;;;;;;24.63;10.53;;;;;;;13.38;67.57;100806.72;124519;1098;103091;-71
2022/10/30 05:52:42;;;;;;;20.68;10.28;;;;;;;13.38;67.57;100799.69;124472;1099;108284;-71
2022/10/30 05:55:13;;;;;;;23.97;10.63;;;;;;;13.39;67.39;100806.76;124521;1099;104829;-72
2022/10/30 05:58:04;;;;;;;23.10;10.50;;;;;;;13.40;67.66;100812.91;124500;1099;104191;-72
2022/10/30 06:00:38;;;;;;;23.97;10.33;;;;;;;13.40;67.54;100813.83;124495;1099;104297;-72
2022/10/30 06:03:12;;;;;;;24.43;10.83;;;;;;;13.41;67.83;100820.86;124494;1099;118937;-72
2022/10/30 06:05:47;;;;;;;24.63;10.07;;;;;;;13.43;68.19;100821.83;124570;1099;104336;-72
2022/10/30 06:08:19;;;;;;;23.87;10.57;;;;;;;13.44;68.40;100820.07;124534;1099;104166;-72
2022/10/30 06:10:51;;;;;;;;;;;;;;;13.45;68.71;100812.21;124507;1098;102271;-72
2022/10/30 06:13:30;;;;;;;25.07;9.90;;;;;;;13.50;68.36;100816.73;124525;1099;104274;-72
2022/10/30 06:16:08;;;;;;;21.17;10.67;;;;;;;13.55;68.37;100823.91;124497;1099;104365;-72
2022/10/30 06:19:00;;;;;;;;;;;;;;;13.59;68.14;100817.88;124563;1099;104078;-72
2022/10/30 06:21:32;;;;;;;22.10;10.10;;;;;;;13.63;68.37;100817.13;124539;1099;104265;-72
2022/10/30 06:24:26;;;;;;;24.93;10.07;;;;;;;13.68;68.40;100811.07;124557;1098;104210;-72
2022/10/30 06:27:10;;;;;;;22.22;10.53;;;;;;;13.70;68.06;100818.19;124598;1099;104188;-72
2022/10/30 06:29:41;;;;;;;24.47;10.77;;;;;;;13.74;68.62;100824.43;124484;1099;104265;-71
2022/10/30 06:32:12;;;;;;;24.80;10.83;;;;;;;13.78;67.80;100821.04;124488;1099;104238;-72
2022/10/30 06:34:43;;;;;;;23.70;10.73;;;;;;;13.83;68.87;100822.93;124548;1099;104262;-72
2022/10/30 06:37:15;;;;;;;22.60;10.87;;;;;;;13.90;69.14;100829.29;124572;1099;104239;-71
2022/10/30 06:39:47;;;;;;;24.33;11.03;;;;;;;13.96;69.26;100823.27;124565;1099;104719;-72
2022/10/30 06:42:45;;;;;;;26.07;10.80;;;;;;;14.02;69.11;100824.34;124575;1099;102965;-72
2022/10/30 06:45:30;;;;;;;25.23;11.43;;;;;;;14.10;69.25;100828.91;124539;1099;104054;-72
2022/10/30 06:48:02;;;;;;;24.37;11.40;;;;;;;14.14;68.83;100818.48;124493;1099;101858;-72
2022/10/30 06:50:37;;;;;;;24.10;10.90;;;;;;;14.22;68.75;100816.05;124538;1099;104265;-72
2022/10/30 06:53:08;;;;;;;25.00;10.70;;;;;;;14.29;68.97;100812.72;124558;1099;104312;-72
2022/10/30 06:55:40;;;;;;;22.80;10.67;;;;;;;14.38;69.15;100818.23;124472;1099;104239;-72
2022/10/30 06:58:30;;;;;;;23.97;11.40;;;;;;;14.49;68.86;100820.23;124528;1097;104258;-71
2022/10/30 07:01:27;;;;;;;23.47;11.30;;;;;;;14.61;69.67;100819.69;124334;1099;104204;-72
2022/10/30 07:04:19;;;;;;;27.17;11.47;;;;;;;14.72;69.34;100819.10;124528;1099;111885;-72
2022/10/30 07:06:50;;;;;;;25.30;11.83;;;;;;;14.82;69.48;100820.20;124513;1099;104261;-72
2022/10/30 07:09:23;;;;;;;26.13;11.93;;;;;;;14.91;69.48;100817.78;124560;1099;104169;-72
2022/10/30 07:11:55;;;;;;;25.93;11.63;;;;;;;15.01;69.51;100821.52;124508;1099;104085;-72
2022/10/30 07:14:38;;;;;;;25.67;11.63;;;;;;;15.10;70.27;100823.48;124505;1099;104236;-72
2022/10/30 07:17:29;;;;;;;28.97;11.97;;;;;;;15.18;69.93;100827.18;124462;1099;104162;-72
2022/10/30 07:20:05;;;;;;;25.87;11.07;;;;;;;15.23;69.72;100820.23;124546;1099;102931;-71
2022/10/30 07:22:39;;;;;;;23.23;11.33;;;;;;;15.27;70.28;100813.28;124530;1099;104177;-72
2022/10/30 07:25:12;;;;;;;24.17;11.40;;;;;;;15.36;69.90;100815.20;124483;1099;106974;-72
2022/10/30 07:28:01;;;;;;;28.70;12.07;;;;;;;15.47;70.30;100811.03;124574;1098;102877;-72
2022/10/30 07:30:47;;;;;;;24.63;11.87;;;;;;;15.59;69.72;100816.57;124512;1098;104248;-71
2022/10/30 07:33:32;;;;;;;24.33;11.10;;;;;;;15.73;69.97;100808.91;124506;1099;104318;-72
2022/10/30 07:36:19;;;;;;;28.00;11.80;;;;;;;15.89;70.13;100802.19;124491;1098;104348;-72
2022/10/30 07:39:10;;;;;;;25.17;12.50;;;;;;;16.06;69.96;100806.91;124232;1099;104230;-72
2022/10/30 07:42:06;;;;;;;22.63;11.83;;;;;;;16.18;69.72;100801.84;124499;1099;104303;-72
2022/10/30 07:45:09;;;;;;;23.00;10.83;;;;;;;16.32;69.38;100807.38;124076;1102;104235;-72
2022/10/30 07:48:03;;;;;;;24.17;12.07;;;;;;;16.44;69.84;100804.02;124318;1099;104201;-72
2022/10/30 07:50:49;;;;;;;24.00;10.50;;;;;;;16.58;69.04;100799.86;124158;1098;104322;-72
2022/10/30 07:53:20;;;;;;;24.03;10.83;;;;;;;16.70;69.59;100801.80;124490;1098;104211;-72
2022/10/30 07:55:52;;;;;;;24.00;10.87;;;;;;;16.82;68.57;100796.68;124502;1099;104238;-72
2022/10/30 07:58:42;;;;;;;23.73;11.70;;;;;;;16.95;68.82;100797.78;124559;1099;104208;-72
2022/10/30 08:01:36;;;;;;;26.77;11.05;;;;;;;17.05;68.87;100783.80;124354;1099;104297;-72
2022/10/30 08:04:19;;;;;;;25.08;11.60;;;;;;;17.13;68.81;100783.02;124507;1099;104233;-72
2022/10/30 08:06:51;;;;;;;23.80;11.00;;;;;;;17.21;68.21;100784.00;124086;1099;104147;-72
2022/10/30 08:09:22;;;;;;;24.70;11.00;;;;;;;17.26;68.05;100784.94;124161;1099;102736;-72
2022/10/30 08:11:53;;;;;;;22.37;10.07;;;;;;;17.30;68.17;100785.89;124135;1099;104248;-72
2022/10/30 08:14:25;;;;;;;23.63;10.80;;;;;;;17.31;68.10;100774.39;124518;1099;104099;-71
2022/10/30 08:16:56;;;;;;;21.03;10.27;;;;;;;17.30;67.89;100783.24;124473;1099;104392;-72
2022/10/30 08:19:27;;;;;;;22.30;10.77;;;;;;;17.26;67.47;100776.98;124496;1099;104290;-72
2022/10/30 08:21:59;;;;;;;23.43;10.77;;;;;;;17.27;67.96;100784.08;124568;1099;104239;-72
2022/10/30 08:24:30;;;;;;;22.90;10.40;;;;;;;17.25;66.88;100792.02;124476;1099;104300;-72
2022/10/30 08:27:02;;;;;;;22.80;9.90;;;;;;;17.28;67.16;100787.61;124547;1099;104245;-72
2022/10/30 08:29:34;;;;;;;20.50;9.77;;;;;;;17.31;67.49;100785.00;124162;1098;104221;-73
2022/10/30 08:32:07;;;;;;;23.13;9.87;;;;;;;17.36;66.56;100796.58;124118;1099;104491;-72
2022/10/30 08:34:56;;;;;;;21.73;9.03;;;;;;;17.53;67.00;100792.37;124577;1099;104160;-72
2022/10/30 08:37:27;;;;;;;20.63;9.70;;;;;;;17.67;66.43;100778.34;124492;1099;104261;-72
2022/10/30 08:39:58;;;;;;;19.40;8.93;;;;;;;17.81;66.19;100776.76;124474;1099;103735;-72
2022/10/30 08:42:49;;;;;;;19.20;8.57;;;;;;;18.00;66.49;100768.98;124494;1099;104163;-72
2022/10/30 08:45:21;;;;;;;22.90;8.97;;;;;;;18.12;65.02;100775.31;124288;1099;104095;-72
2022/10/30 08:48:18;;;;;;;19.93;9.47;;;;;;;18.21;64.79;100761.21;124558;1099;104175;-72
2022/10/30 08:50:50;;;;;;;24.53;9.00;;;;;;;18.31;65.12;100759.55;124499;1099;104245;-72
2022/10/30 08:53:27;;;;;;;20.23;8.47;;;;;;;18.41;64.83;100757.84;124136;1099;104293;-71
2022/10/30 08:55:59;;;;;;;20.77;8.50;;;;;;;18.39;63.34;100765.80;124349;1099;103075;-72
2022/10/30 08:58:40;;;;;;;18.73;9.13;;;;;;;18.36;64.20;100757.80;124465;1099;104364;-72
2022/10/30 09:01:12;;;;;;;19.90;9.43;;;;;;;18.37;62.70;100762.25;124486;1099;104179;-72
2022/10/30 09:04:02;;;;;;;22.70;9.00;;;;;;;18.38;63.36;100763.13;124533;1099;104271;-72
2022/10/30 09:06:53;;;;;;;22.17;8.93;;;;;;;18.43;63.71;100762.30;124347;1099;104804;-72
2022/10/30 09:09:50;;;;;;;18.70;8.57;;;;;;;18.46;63.72;100754.32;124347;1099;104198;-72
2022/10/30 09:12:22;;;;;;;17.93;8.13;;;;;;;18.48;62.92;100749.02;124488;1099;104338;-72
2022/10/30 09:14:54;;;;;;;18.47;8.07;;;;;;;18.51;63.49;100754.35;124127;1099;104348;-72
2022/10/30 09:17:25;;;;;;;17.80;8.97;;;;;;;18.50;62.76;100747.28;124455;1099;104261;-72
2022/10/30 09:19:57;;;;;;;15.80;8.17;;;;;;;18.48;63.14;100757.91;124564;1099;102828;-72
2022/10/30 09:22:42;;;;;;;20.17;9.00;;;;;;;18.48;62.93;100755.24;124566;1099;103644;-72
2022/10/30 09:25:13;;;;;;;17.80;8.53;;;;;;;18.49;62.21;100748.15;124129;1098;104163;-72
2022/10/30 09:27:53;;;;;;;20.13;8.37;;;;;;;18.48;62.31;100749.02;124484;1099;104417;-72
2022/10/30 09:30:25;;;;;;;19.70;8.70;;;;;;;18.51;62.44;100749.04;124354;1098;104323;-72
2022/10/30 09:32:58;;;;;;;20.07;9.07;;;;;;;18.53;62.21;100749.96;124198;1099;104372;-72
2022/10/30 09:35:42;;;;;;;21.47;8.73;;;;;;;18.60;62.33;100746.45;124120;1100;104252;-71
2022/10/30 09:38:13;;;;;;;16.40;7.90;;;;;;;18.61;61.30;100748.23;124175;1099;102944;-72
2022/10/30 09:41:02;;;;;;;21.10;8.33;;;;;;;18.61;61.97;100744.70;124551;1099;104255;-72
2022/10/30 09:43:44;;;;;;;19.30;7.50;;;;;;;18.60;61.10;100754.42;124481;1099;104297;-72
2022/10/30 09:46:34;;;;;;;21.70;8.70;;;;;;;18.58;61.01;100748.22;124454;1098;104290;-72
2022/10/30 09:49:23;;;;;;;16.73;7.87;;;;;;;18.60;61.31;100753.55;124140;1099;104162;-71
2022/10/30 09:52:21;;;;;;;20.40;8.10;;;;;;;18.61;61.33;100753.55;124112;1099;104238;-72
2022/10/30 09:55:28;;;;;;;19.33;8.57;;;;;;;18.60;60.43;100754.42;124492;1099;104175;-71
2022/10/30 09:58:12;;;;;;;17.43;8.70;;;;;;;18.59;60.46;100752.66;124537;1099;104188;-72
2022/10/30 10:00:50;;;;;;;19.70;7.70;;;;;;;18.54;60.51;100754.38;124536;1099;104172;-72
2022/10/30 10:03:41;;;;;;;20.53;7.97;;;;;;;18.55;60.82;100753.51;124518;1099;103030;-72
2022/10/30 10:06:39;;;;;;;18.77;7.83;;;;;;;18.60;60.80;100745.56;124492;1098;104169;-72
2022/10/30 10:09:20;;;;;;;19.60;7.67;;;;;;;18.63;60.28;100745.59;124201;1099;102844;-72
2022/10/30 10:12:20;;;;;;;16.50;7.70;;;;;;;18.64;60.23;100742.06;124479;1099;104214;-72
2022/10/30 10:14:53;;;;;;;19.83;7.83;;;;;;;18.68;59.46;100747.41;124520;1099;104227;-71
2022/10/30 10:17:32;;;;;;;17.75;7.42;;;;;;;18.76;59.70;100741.23;124522;1099;104756;-72
2022/10/30 10:20:13;;;;;;;15.30;6.70;;;;;;;18.86;58.19;100737.80;124580;1099;104285;-72
2022/10/30 10:22:49;;;;;;;18.57;6.60;;;;;;;18.94;58.71;100740.49;124534;1098;104236;-72
2022/10/30 10:25:23;;;;;;;19.80;7.03;;;;;;;19.01;58.50;100756.48;124573;1099;102823;-72
2022/10/30 10:28:07;;;;;;;17.20;6.62;;;;;;;18.99;57.03;100742.27;124441;1099;104313;-72
2022/10/30 10:30:48;;;;;;;13.53;6.03;;;;;;;18.96;57.64;100742.25;124521;1099;103092;-72
2022/10/30 10:33:33;;;;;;;14.47;6.73;;;;;;;18.96;57.70;100728.08;124444;1099;102196;-72
2022/10/30 10:36:13;;;;;;;15.73;6.33;;;;;;;19.00;57.30;100735.20;124500;1099;104270;-73
2022/10/30 10:39:01;;;;;;;18.50;6.77;;;;;;;19.07;57.21;100733.45;124545;1099;104265;-72
2022/10/30 10:41:48;;;;;;;14.90;6.83;;;;;;;19.13;57.12;100728.16;124626;1099;103642;-72
2022/10/30 10:44:34;;;;;;;16.03;7.27;;;;;;;19.18;57.70;100729.97;124571;1099;104169;-72
2022/10/30 10:47:18;;;;;;;16.33;6.00;;;;;;;19.22;56.90;100728.20;124497;1099;104176;-72
2022/10/30 10:50:05;;;;;;;14.17;6.20;;;;;;;19.24;56.37;100721.11;124521;1099;104245;-72
2022/10/30 10:52:42;;;;;;;14.70;6.37;;;;;;;19.26;57.13;100713.12;124486;1098;104268;-72
2022/10/30 10:55:19;;;;;;;14.17;6.10;;;;;;;19.26;55.78;100716.70;124474;1099;102251;-72
2022/10/30 10:57:51;;;;;;;16.27;6.10;;;;;;;19.31;56.87;100714.06;124506;1099;104178;-72
2022/10/30 11:00:24;;;;;;;15.60;6.17;;;;;;;19.38;56.88;100715.83;124486;1099;104251;-72
2022/10/30 11:03:03;;;;;;;16.45;5.95;;;;;;;19.42;55.85;100704.33;124503;1099;104321;-73
2022/10/30 11:05:38;;;;;;;14.30;6.17;;;;;;;19.40;55.43;100701.66;124561;1099;104238;-72
2022/10/30 11:08:15;;;;;;;12.70;5.97;;;;;;;19.42;55.98;100698.13;124576;1099;104271;-73
2022/10/30 11:10:49;;;;;;;16.63;6.30;;;;;;;19.43;55.99;100702.54;124553;1099;104303;-72
2022/10/30 11:13:18;;;;;;;;;;;;;;;19.45;55.89;100700.80;124073;1098;104245;-72
2022/10/30 11:15:59;;;;;;;14.57;6.40;;;;;;;19.43;55.72;100695.47;124497;1099;104188;-72
2022/10/30 11:18:31;;;;;;;15.80;6.43;;;;;;;19.36;55.52;100691.00;124246;1099;105440;-72
2022/10/30 11:21:09;;;;;;;16.15;6.90;;;;;;;19.33;55.17;100688.33;124551;1099;104169;-73
2022/10/30 11:23:41;;;;;;;15.97;7.00;;;;;;;19.29;55.50;100689.20;124562;1099;104155;-72
2022/10/30 11:26:31;;;;;;;15.60;7.63;;;;;;;19.23;55.69;100687.43;124534;1099;104242;-72
2022/10/30 11:29:11;;;;;;;17.03;7.13;;;;;;;19.22;55.82;100688.30;124547;1099;104195;-72
2022/10/30 11:31:44;;;;;;;12.10;6.10;;;;;;;19.18;55.04;100689.16;124508;1099;104242;-72
2022/10/30 11:34:35;;;;;;;17.42;6.30;;;;;;;19.12;55.12;100691.80;124530;1099;104660;-72
2022/10/30 11:37:27;;;;;;;11.63;5.27;;;;;;;19.04;54.51;100692.68;124511;1099;104169;-72
2022/10/30 11:40:07;;;;;;;16.47;4.47;;;;;;;18.98;53.03;100689.99;124462;1098;104060;-72
2022/10/30 11:42:40;;;;;;;13.03;4.37;;;;;;;18.93;51.96;100705.05;124544;1099;104185;-72
2022/10/30 11:45:16;;;;;;;11.30;4.40;;;;;;;18.92;50.91;100691.75;124592;1099;104239;-72
2022/10/30 11:47:47;;;;;;;10.83;4.00;;;;;;;18.89;51.18;100692.61;124574;1099;104313;-72